32.7°F
Current conditions from King Hill
Updated every 5 minutes
 
  Saturday November 1, 2014

Station Historical Data
Daily Summary for April 30, 2012 Units:  Metric    English   Both
« Previous Day
Next Day »
Daily Weekly Monthly Yearly Custom
  High: Low: Average:
Temperature: 14.1 °C -2.6 °C 7.2 °C
Dew Point: 2.2 °C -8.8 °C -3.8 °C
Humidity: 67% 29% 47%
Wind Speed: 8km/h 1.6km/h 2.3km/h
Wind Gust: 19.3km/h - -
Wind- - SSW
Pressure: 1027.3 hPa 1018.2 hPa -
Precipitation: 0 mm    
Historical Graphs
 
 
Tabular Data for April 30, 2012
Time Temperature Dew Point Pressure Wind Wind Speed Wind Gust Humidity Daily Rainfall
00:04 1.9 °C -8.4 °C 1024.3 hPa NNW 1.6 km/h 6.4 km/h 46% 0 mm
00:09 2 °C -8.2 °C 1024.3 hPa Calm   6.4 km/h 47% 0 mm
00:14 1.8 °C -8 °C 1024.3 hPa Calm   1.6 km/h 48% 0 mm
00:19 1.7 °C -8.1 °C 1024.3 hPa Calm   4.8 km/h 48% 0 mm
00:24 1.7 °C -8.7 °C 1024.3 hPa NNW 1.6 km/h 9.7 km/h 46% 0 mm
00:29 1.9 °C -8.4 °C 1024.3 hPa NNE 3.2 km/h 14.5 km/h 46% 0 mm
00:34 2.1 °C -8.3 °C 1024.3 hPa Calm   14.5 km/h 46% 0 mm
00:39 2.1 °C -8.4 °C 1024.3 hPa Calm   8 km/h 46% 0 mm
00:44 2.1 °C -8.4 °C 1024.3 hPa Calm   11.3 km/h 46% 0 mm
00:49 2 °C -7.9 °C 1024.3 hPa North 1.6 km/h 11.3 km/h 48% 0 mm
00:59 2.1 °C -8.3 °C 1023.9 hPa North 6.4 km/h 19.3 km/h 46% 0 mm
01:04 2.2 °C -7.9 °C 1023.9 hPa Calm   19.3 km/h 47% 0 mm
01:09 2.2 °C -8.5 °C 1023.9 hPa NNE 1.6 km/h 14.5 km/h 45% 0 mm
01:14 2.3 °C -8.4 °C 1023.9 hPa North 4.8 km/h 14.5 km/h 45% 0 mm
01:19 2.4 °C -7.8 °C 1023.9 hPa Calm   14.5 km/h 47% 0 mm
01:24 2.4 °C -8.3 °C 1023.9 hPa NNE 1.6 km/h 16.1 km/h 45% 0 mm
01:29 2.4 °C -8.3 °C 1023.6 hPa Calm   16.1 km/h 45% 0 mm
01:34 2.2 °C -7.9 °C 1023.9 hPa Calm   16.1 km/h 47% 0 mm
01:39 2.1 °C -8.3 °C 1023.9 hPa NNE 1.6 km/h 9.7 km/h 46% 0 mm
01:44 2 °C -8.2 °C 1023.9 hPa Calm   9.7 km/h 47% 0 mm
01:49 1.9 °C -8.4 °C 1023.9 hPa NNW 3.2 km/h 12.9 km/h 46% 0 mm
01:54 1.8 °C -8.1 °C 1023.9 hPa NNW 3.2 km/h 17.7 km/h 48% 0 mm
01:59 1.8 °C -8.3 °C 1023.9 hPa NNW 1.6 km/h 17.7 km/h 47% 0 mm
02:04 1.8 °C -8.3 °C 1023.9 hPa NNW 1.6 km/h 11.3 km/h 47% 0 mm
02:09 1.7 °C -8.4 °C 1024.3 hPa Calm   9.7 km/h 47% 0 mm
02:14 1.8 °C -8.3 °C 1024.3 hPa North 1.6 km/h 9.7 km/h 47% 0 mm
02:19 1.9 °C -8.4 °C 1024.3 hPa Calm   9.7 km/h 46% 0 mm
02:24 2 °C -8.7 °C 1024.3 hPa North 1.6 km/h 9.7 km/h 45% 0 mm
02:29 2.2 °C -8.8 °C 1024.3 hPa North 3.2 km/h 19.3 km/h 44% 0 mm
02:34 2.4 °C -8.6 °C 1024.3 hPa NE 3.2 km/h 19.3 km/h 44% 0 mm
02:39 2.4 °C -8.6 °C 1024.3 hPa North 1.6 km/h 12.9 km/h 44% 0 mm
02:44 2.3 °C -8.7 °C 1024.3 hPa Calm   9.7 km/h 44% 0 mm
02:49 2.2 °C -8.2 °C 1023.9 hPa NE 1.6 km/h 11.3 km/h 46% 0 mm
02:54 2.1 °C -7.8 °C 1023.9 hPa NE 1.6 km/h 11.3 km/h 48% 0 mm
02:59 1.9 °C -7.9 °C 1023.9 hPa Calm   9.7 km/h 48% 0 mm
03:04 1.8 °C -8.1 °C 1023.9 hPa Calm   6.4 km/h 48% 0 mm
03:09 1.7 °C -7.8 °C 1023.9 hPa Calm   8 km/h 49% 0 mm
03:14 1.7 °C -8.4 °C 1023.9 hPa Calm   8 km/h 47% 0 mm
03:19 1.7 °C -8.2 °C 1023.9 hPa Calm   6.4 km/h 48% 0 mm
03:24 1.6 °C -7.5 °C 1023.9 hPa Calm     51% 0 mm
03:29 1.3 °C -8 °C 1023.9 hPa Calm     50% 0 mm
03:34 1 °C -8 °C 1023.9 hPa Calm     51% 0 mm
03:44 0.5 °C -8.5 °C 1024.3 hPa Calm     51% 0 mm
03:49 0.4 °C -8.1 °C 1024.3 hPa Calm     53% 0 mm
03:59 0.3 °C -7.7 °C 1024.3 hPa Calm     55% 0 mm
04:04 0.2 °C -8.3 °C 1024.3 hPa Calm     53% 0 mm
04:09 0.3 °C -8.4 °C 1024.3 hPa Calm     52% 0 mm
04:14 0.1 °C -7.6 °C 1024.3 hPa Calm     56% 0 mm
04:19 -0.6 °C -7.8 °C 1024.3 hPa Calm     58% 0 mm
04:24 -0.9 °C -7.9 °C 1024.3 hPa Calm     59% 0 mm
04:29 -0.8 °C -7.6 °C 1024.3 hPa Calm     60% 0 mm
04:34 -0.8 °C -7.6 °C 1023.9 hPa Calm     60% 0 mm
04:39 -0.9 °C -8.1 °C 1023.9 hPa Calm     58% 0 mm
04:44 -1.1 °C -8.3 °C 1023.9 hPa Calm     58% 0 mm
04:49 -1.2 °C -8.2 °C 1024.3 hPa Calm     59% 0 mm
04:54 -1.2 °C -8.6 °C 1024.3 hPa Calm     57% 0 mm
04:59 -1.1 °C -7.8 °C 1023.9 hPa Calm     60% 0 mm
05:04 -0.9 °C -7.9 °C 1023.9 hPa Calm     59% 0 mm
05:14 -1.2 °C -8.4 °C 1024.3 hPa Calm     58% 0 mm
05:19 -1.4 °C -8.7 °C 1023.9 hPa Calm     58% 0 mm
05:24 -1.4 °C -7.6 °C 1024.3 hPa Calm     63% 0 mm
05:29 -1.4 °C -7.9 °C 1024.3 hPa Calm     61% 0 mm
05:34 -1.6 °C -8.4 °C 1024.3 hPa Calm     60% 0 mm
05:40 -1.8 °C -8.1 °C 1024.6 hPa Calm     62% 0 mm
05:49 -2.4 °C -7.9 °C 1024.6 hPa Calm     66% 0 mm
05:54 -2.5 °C -8 °C 1024.9 hPa Calm     66% 0 mm
05:59 -2.5 °C -8.2 °C 1024.9 hPa Calm     65% 0 mm
06:04 -2.6 °C -7.9 °C 1024.9 hPa Calm     67% 0 mm
06:09 -2.6 °C -7.9 °C 1024.9 hPa Calm     67% 0 mm
06:14 -2.4 °C -8.3 °C 1024.9 hPa Calm     64% 0 mm
06:19 -1.9 °C -8.3 °C 1025.3 hPa Calm     62% 0 mm
06:24 -1.5 °C -8.5 °C 1025.3 hPa Calm     59% 0 mm
06:29 -1.1 °C -7.4 °C 1025.3 hPa Calm     62% 0 mm
06:34 -1 °C -7.2 °C 1025.6 hPa Calm     63% 0 mm
06:39 -1 °C -7.6 °C 1025.6 hPa Calm     61% 0 mm
06:44 -0.7 °C -7.3 °C 1025.6 hPa Calm     61% 0 mm
06:49 -0.5 °C -7.1 °C 1025.6 hPa Calm     61% 0 mm
06:59 -0.6 °C -7.6 °C 1026 hPa Calm     59% 0 mm
07:04 -0.3 °C -7.3 °C 1026 hPa Calm     59% 0 mm
07:09 0.2 °C -6.9 °C 1026 hPa Calm     59% 0 mm
07:14 0.5 °C -6.8 °C 1026.3 hPa Calm     58% 0 mm
07:19 1.2 °C -6.4 °C 1026.3 hPa Calm     57% 0 mm
07:24 1.8 °C -5.8 °C 1026 hPa Calm     57% 0 mm
07:29 2.5 °C -5.4 °C 1026 hPa Calm     56% 0 mm
07:34 3.2 °C -5.7 °C 1026 hPa Calm     52% 0 mm
07:39 3.8 °C -4.9 °C 1026.3 hPa Calm     53% 0 mm
07:44 4.4 °C -5.4 °C 1026.3 hPa Calm   3.2 km/h 49% 0 mm
07:49 4.7 °C -5.7 °C 1026.3 hPa Calm   3.2 km/h 47% 0 mm
07:54 4.9 °C -5.4 °C 1026.3 hPa Calm   4.8 km/h 47% 0 mm
07:59 5.4 °C -5.6 °C 1026.3 hPa Calm   4.8 km/h 45% 0 mm
08:04 5.6 °C -5.7 °C 1026.6 hPa Calm   1.6 km/h 44% 0 mm
08:09 5.3 °C -5.9 °C 1026.6 hPa NW 3.2 km/h 8 km/h 44% 0 mm
08:14 5.1 °C -6.5 °C 1026.6 hPa WNW 1.6 km/h 8 km/h 43% 0 mm
08:19 5.1 °C -6.5 °C 1026.6 hPa NW 1.6 km/h 8 km/h 43% 0 mm
08:24 5.1 °C -6.5 °C 1026.6 hPa Calm   6.4 km/h 43% 0 mm
08:29 5.3 °C -6 °C 1027 hPa NW 1.6 km/h 8 km/h 44% 0 mm
08:34 5.4 °C -6.2 °C 1027 hPa Calm   8 km/h 43% 0 mm
08:44 5.4 °C -6.2 °C 1027 hPa Calm   9.7 km/h 43% 0 mm
08:49 5.4 °C -5.9 °C 1027 hPa Calm   8 km/h 44% 0 mm
08:54 5.6 °C -6.1 °C 1027 hPa Calm   6.4 km/h 43% 0 mm
08:59 5.9 °C -5.7 °C 1027.3 hPa Calm   6.4 km/h 43% 0 mm
09:04 6.1 °C -5.6 °C 1027.3 hPa Calm   3.2 km/h 43% 0 mm
09:09 6.1 °C -5.6 °C 1027.3 hPa Calm   3.2 km/h 43% 0 mm
09:14 6.4 °C -5.3 °C 1027.3 hPa Calm   3.2 km/h 43% 0 mm
09:19 6.6 °C -5.1 °C 1027 hPa Calm   3.2 km/h 43% 0 mm
09:24 6.9 °C -5.1 °C 1027 hPa Calm   6.4 km/h 42% 0 mm
09:29 7.1 °C -4.9 °C 1027 hPa Calm   6.4 km/h 42% 0 mm
09:34 7.3 °C -5.1 °C 1027 hPa Calm   6.4 km/h 41% 0 mm
09:39 7.3 °C -5.4 °C 1027 hPa Calm   6.4 km/h 40% 0 mm
09:44 7.4 °C -4.7 °C 1026.6 hPa Calm     42% 0 mm
09:49 7.4 °C -5.3 °C 1026.6 hPa Calm   6.4 km/h 40% 0 mm
09:54 7.4 °C -4.9 °C 1026.6 hPa Calm   6.4 km/h 41% 0 mm
09:59 7.3 °C -5.1 °C 1026.6 hPa NE 1.6 km/h 6.4 km/h 41% 0 mm
10:04 7.6 °C -4.8 °C 1026.3 hPa Calm   6.4 km/h 41% 0 mm
10:14 8.2 °C -4.6 °C 1026 hPa NNE 1.6 km/h 6.4 km/h 40% 0 mm
10:19 8.2 °C -4.9 °C 1026 hPa Calm   6.4 km/h 39% 0 mm
10:24 8.3 °C -3.6 °C 1026 hPa NW 1.6 km/h 9.7 km/h 43% 0 mm
10:29 8.7 °C -4.5 °C 1026 hPa Calm   9.7 km/h 39% 0 mm
10:39 9.5 °C -3.8 °C 1025.6 hPa North 1.6 km/h 11.3 km/h 39% 0 mm
10:44 9.4 °C -3.9 °C 1025.6 hPa Calm   11.3 km/h 39% 0 mm
10:49 9.4 °C -3.8 °C 1025.6 hPa NW 1.6 km/h 9.7 km/h 39% 0 mm
10:54 9.4 °C -3.9 °C 1025.6 hPa NW 1.6 km/h 6.4 km/h 39% 0 mm
10:59 9.6 °C -3.7 °C 1026 hPa Calm   6.4 km/h 39% 0 mm
11:04 9.4 °C -4.6 °C 1025.6 hPa WNW 3.2 km/h 9.7 km/h 37% 0 mm
11:09 9.3 °C -4.3 °C 1026 hPa Calm   9.7 km/h 38% 0 mm
11:14 9.6 °C -4.1 °C 1026 hPa West 1.6 km/h 9.7 km/h 38% 0 mm
11:19 9.6 °C -4.8 °C 1025.6 hPa WNW 4.8 km/h 12.9 km/h 36% 0 mm
11:24 8.8 °C -4.7 °C 1026 hPa Calm   12.9 km/h 38% 0 mm
11:29 9.1 °C -3.2 °C 1025.6 hPa Calm   8 km/h 42% 0 mm
11:34 9.5 °C -3.8 °C 1025.6 hPa South 1.6 km/h 9.7 km/h 39% 0 mm
11:39 9.5 °C -4.1 °C 1025.6 hPa ENE 3.2 km/h 11.3 km/h 38% 0 mm
11:44 9.3 °C -2.9 °C 1025.3 hPa North 1.6 km/h 11.3 km/h 42% 0 mm
11:49 10 °C -2 °C 1025.3 hPa ESE 3.2 km/h 12.9 km/h 43% 0 mm
11:54 10.3 °C -3.4 °C 1025.3 hPa ENE 1.6 km/h 12.9 km/h 38% 0 mm
11:59 10.1 °C -3.6 °C 1025.3 hPa NE 1.6 km/h 11.3 km/h 38% 0 mm
12:04 10.1 °C -4 °C 1024.9 hPa Calm   9.7 km/h 37% 0 mm
12:09 10.1 °C -3.9 °C 1024.6 hPa Calm   9.7 km/h 37% 0 mm
12:14 10.1 °C -3.6 °C 1024.6 hPa Calm   9.7 km/h 38% 0 mm
12:24 10.3 °C -3.7 °C 1024.3 hPa Calm   6.4 km/h 37% 0 mm
12:29 10.9 °C -2.9 °C 1024.3 hPa Calm   6.4 km/h 38% 0 mm
12:34 11 °C -3.5 °C 1024.3 hPa Calm   6.4 km/h 36% 0 mm
12:39 10.8 °C -3.7 °C 1024.3 hPa Calm   8 km/h 36% 0 mm
12:44 11.3 °C -2.9 °C 1024.3 hPa ENE 1.6 km/h 8 km/h 37% 0 mm
12:49 11.4 °C -3.6 °C 1023.9 hPa Calm   12.9 km/h 35% 0 mm
12:54 11.4 °C -3.6 °C 1023.9 hPa Calm   12.9 km/h 35% 0 mm
12:59 11.4 °C -3.5 °C 1023.9 hPa Calm   11.3 km/h 35% 0 mm
13:04 11.7 °C -3.6 °C 1023.9 hPa Calm   11.3 km/h 34% 0 mm
13:09 12.1 °C -3.3 °C 1023.9 hPa Calm   11.3 km/h 34% 0 mm
13:14 12.4 °C -3.1 °C 1023.6 hPa Calm   4.8 km/h 34% 0 mm
13:19 12.7 °C -3.6 °C 1023.6 hPa NNE 1.6 km/h 8 km/h 32% 0 mm
13:24 12.7 °C -4.4 °C 1023.6 hPa NE 1.6 km/h 9.7 km/h 30% 0 mm
13:29 12.7 °C -2.7 °C 1023.6 hPa Calm   9.7 km/h 34% 0 mm
13:34 12.8 °C -1.9 °C 1023.6 hPa East 1.6 km/h 11.3 km/h 36% 0 mm
13:39 12.8 °C -3.4 °C 1023.2 hPa NE 1.6 km/h 11.3 km/h 32% 0 mm
13:44 12.8 °C -3.1 °C 1023.2 hPa Calm   9.7 km/h 33% 0 mm
13:49 12.7 °C -3.2 °C 1023.2 hPa Calm   9.7 km/h 33% 0 mm
13:54 12.6 °C -3.3 °C 1022.9 hPa North 1.6 km/h 12.9 km/h 33% 0 mm
13:59 12.7 °C -3.2 °C 1022.9 hPa Calm   12.9 km/h 33% 0 mm
14:04 13 °C -2.1 °C 1022.9 hPa Calm   6.4 km/h 35% 0 mm
14:09 13.1 °C -2.4 °C 1022.9 hPa Calm   9.7 km/h 34% 0 mm
14:14 12.9 °C -3.4 °C 1022.6 hPa Calm   9.7 km/h 32% 0 mm
14:19 13.1 °C -2.4 °C 1022.6 hPa Calm   3.2 km/h 34% 0 mm
14:24 13.5 °C -2.4 °C 1022.6 hPa Calm   4.8 km/h 33% 0 mm
14:29 13.6 °C -3.3 °C 1022.6 hPa Calm   8 km/h 31% 0 mm
14:34 13.4 °C -2.5 °C 1022.6 hPa Calm   8 km/h 33% 0 mm
14:44 13.6 °C -2.4 °C 1022.2 hPa Calm   4.8 km/h 33% 0 mm
14:49 13.6 °C -1.9 °C 1022.2 hPa Calm   4.8 km/h 34% 0 mm
14:54 13.8 °C -2.2 °C 1022.2 hPa Calm   8 km/h 33% 0 mm
14:59 13.9 °C -2.6 °C 1022.2 hPa NW 1.6 km/h 8 km/h 32% 0 mm
15:04 13.9 °C -2.1 °C 1021.9 hPa Calm   6.4 km/h 33% 0 mm
15:14 14.1 °C -2.3 °C 1021.9 hPa Calm   3.2 km/h 32% 0 mm
15:19 14.1 °C -3.7 °C 1021.9 hPa Calm   9.7 km/h 29% 0 mm
15:24 13.6 °C -1.2 °C 1021.9 hPa WSW 8 km/h 12.9 km/h 36% 0 mm
15:29 13.2 °C -1.6 °C 1021.9 hPa WSW 3.2 km/h 14.5 km/h 36% 0 mm
15:34 13.1 °C -0.9 °C 1021.6 hPa West 4.8 km/h 14.5 km/h 38% 0 mm
15:39 13 °C -1 °C 1021.6 hPa West 1.6 km/h 14.5 km/h 38% 0 mm
15:44 13.1 °C -0.9 °C 1021.6 hPa WNW 3.2 km/h 14.5 km/h 38% 0 mm
15:49 13 °C -1.3 °C 1021.6 hPa WNW 4.8 km/h 12.9 km/h 37% 0 mm
15:54 13.1 °C -1.3 °C 1021.2 hPa NW 1.6 km/h 14.5 km/h 37% 0 mm
15:59 13.4 °C -0.7 °C 1021.2 hPa WNW 1.6 km/h 14.5 km/h 38% 0 mm
16:04 13.5 °C 0.5 °C 1021.2 hPa NW 1.6 km/h 9.7 km/h 41% 0 mm
16:09 13.7 °C 0 °C 1021.2 hPa Calm   11.3 km/h 39% 0 mm
16:14 13.9 °C 0.2 °C 1020.9 hPa Calm   11.3 km/h 39% 0 mm
16:19 13.9 °C -0.9 °C 1020.9 hPa Calm   1.6 km/h 36% 0 mm
16:24 13.7 °C -0.7 °C 1020.9 hPa Calm   3.2 km/h 37% 0 mm
16:29 13.5 °C -0.9 °C 1020.9 hPa Calm   3.2 km/h 37% 0 mm
16:34 13.4 °C -1.4 °C 1020.9 hPa Calm   3.2 km/h 36% 0 mm
16:39 13.5 °C -0.2 °C 1020.9 hPa Calm     39% 0 mm
16:44 13.3 °C -0.7 °C 1020.9 hPa WNW 1.6 km/h 8 km/h 38% 0 mm
16:49 13.2 °C -0.5 °C 1020.9 hPa Calm   8 km/h 39% 0 mm
16:59 12.9 °C -1.1 °C 1020.9 hPa Calm   8 km/h 38% 0 mm
17:09 12.9 °C -0.1 °C 1020.9 hPa Calm     41% 0 mm
17:14 12.8 °C -0.4 °C 1020.9 hPa Calm     40% 0 mm
17:19 12.7 °C -0.2 °C 1020.9 hPa Calm     41% 0 mm
17:24 12.4 °C -0.8 °C 1020.9 hPa Calm     40% 0 mm
17:29 12.4 °C -0.4 °C 1020.9 hPa Calm     41% 0 mm
17:34 12.5 °C -0.1 °C 1020.9 hPa Calm     42% 0 mm
17:39 12.6 °C -0.7 °C 1020.5 hPa Calm   1.6 km/h 40% 0 mm
17:44 12.6 °C -0.7 °C 1020.5 hPa Calm   1.6 km/h 40% 0 mm
17:49 12.6 °C -1.1 °C 1020.5 hPa Calm     39% 0 mm
17:54 12.6 °C -0.7 °C 1020.5 hPa Calm   3.2 km/h 40% 0 mm
17:59 12.5 °C -0.4 °C 1020.5 hPa Calm   3.2 km/h 41% 0 mm
18:04 12.4 °C -0.8 °C 1020.5 hPa Calm   1.6 km/h 40% 0 mm
18:09 12.4 °C -0.1 °C 1020.5 hPa WNW 1.6 km/h 4.8 km/h 42% 0 mm
18:14 12.3 °C 0.1 °C 1020.2 hPa Calm   6.4 km/h 43% 0 mm
18:19 12.2 °C 0.3 °C 1020.2 hPa Calm   6.4 km/h 44% 0 mm
18:24 11.9 °C 0.4 °C 1020.5 hPa Calm   4.8 km/h 45% 0 mm
18:29 11.7 °C 0.2 °C 1020.5 hPa Calm   4.8 km/h 45% 0 mm
18:34 11.6 °C 0.1 °C 1020.5 hPa Calm   3.2 km/h 45% 0 mm
18:44 11.3 °C 0.1 °C 1020.5 hPa Calm     46% 0 mm
18:49 11.3 °C 0.4 °C 1020.5 hPa Calm     47% 0 mm
18:54 11.1 °C 1.6 °C 1020.5 hPa Calm     52% 0 mm
18:59 10.7 °C 1.3 °C 1020.5 hPa Calm     52% 0 mm
19:04 10.4 °C 2.1 °C 1020.5 hPa Calm     56% 0 mm
19:09 10.2 °C 1.3 °C 1020.5 hPa Calm     54% 0 mm
19:14 10.1 °C 1.2 °C 1020.2 hPa Calm     54% 0 mm
19:19 9.9 °C 1 °C 1020.2 hPa Calm     54% 0 mm
19:24 9.7 °C 1.8 °C 1020.2 hPa Calm     58% 0 mm
19:29 9.6 °C 2.2 °C 1020.2 hPa Calm     60% 0 mm
19:34 9.5 °C 1.2 °C 1020.2 hPa Calm   1.6 km/h 56% 0 mm
19:39 9.7 °C 0 °C 1019.9 hPa Calm   3.2 km/h 51% 0 mm
19:44 9.8 °C -0.1 °C 1019.9 hPa Calm   4.8 km/h 50% 0 mm
19:49 9.8 °C 0.2 °C 1019.9 hPa Calm   4.8 km/h 51% 0 mm
19:54 9.9 °C -0.1 °C 1019.9 hPa Calm   4.8 km/h 50% 0 mm
19:59 10 °C 0.1 °C 1019.5 hPa Calm   4.8 km/h 50% 0 mm
20:04 10 °C -0.5 °C 1019.5 hPa Calm   4.8 km/h 48% 0 mm
20:09 9.9 °C -0.3 °C 1019.5 hPa Calm   4.8 km/h 49% 0 mm
20:14 9.9 °C 1.3 °C 1019.5 hPa Calm   1.6 km/h 55% 0 mm
20:19 9.8 °C 0.9 °C 1019.5 hPa Calm   1.6 km/h 54% 0 mm
20:24 9.6 °C 0.2 °C 1019.5 hPa Calm     52% 0 mm
20:29 9.5 °C -0.1 °C 1019.5 hPa Calm     51% 0 mm
20:34 9.4 °C 0.3 °C 1019.5 hPa Calm     53% 0 mm
20:39 9.3 °C -0.1 °C 1019.5 hPa Calm     52% 0 mm
20:44 9.2 °C -0.2 °C 1019.5 hPa Calm     52% 0 mm
20:49 9.1 °C 0.3 °C 1019.5 hPa Calm     54% 0 mm
20:54 9 °C 0.7 °C 1019.5 hPa Calm   3.2 km/h 56% 0 mm
20:59 8.8 °C 1.5 °C 1019.5 hPa ESE 1.6 km/h 3.2 km/h 60% 0 mm
21:04 8.7 °C 1.4 °C 1019.2 hPa ESE 3.2 km/h 4.8 km/h 60% 0 mm
21:09 8.6 °C 1.1 °C 1019.2 hPa Calm   4.8 km/h 59% 0 mm
21:14 8.6 °C 0.8 °C 1019.2 hPa Calm   4.8 km/h 58% 0 mm
21:19 8.6 °C 0.3 °C 1019.2 hPa Calm   4.8 km/h 56% 0 mm
21:24 8.7 °C 0.4 °C 1018.8 hPa Calm     56% 0 mm
21:29 8.7 °C 0.2 °C 1018.8 hPa Calm   3.2 km/h 55% 0 mm
21:34 8.8 °C 0.2 °C 1018.5 hPa Calm   3.2 km/h 55% 0 mm
21:39 8.8 °C -0.3 °C 1018.5 hPa SE 1.6 km/h 6.4 km/h 53% 0 mm
21:49 9.5 °C -0.7 °C 1018.2 hPa SSW 1.6 km/h 9.7 km/h 49% 0 mm
21:54 9.8 °C -0.7 °C 1018.2 hPa Calm   9.7 km/h 48% 0 mm
21:59 10.1 °C -0.4 °C 1018.2 hPa Calm   6.4 km/h 48% 0 mm
22:04 10.1 °C -0.7 °C 1018.2 hPa Calm   4.8 km/h 47% 0 mm
22:09 10.1 °C -0.2 °C 1018.2 hPa Calm     49% 0 mm
22:14 9.9 °C 0.6 °C 1018.2 hPa Calm     52% 0 mm
22:19 9.7 °C 0.6 °C 1018.2 hPa Calm     53% 0 mm
22:24 9.5 °C 0.7 °C 1018.2 hPa Calm     54% 0 mm
22:29 9.3 °C 0.4 °C 1018.2 hPa Calm     54% 0 mm
22:34 9.2 °C 0.8 °C 1018.2 hPa Calm     56% 0 mm
22:39 9 °C 1.2 °C 1018.2 hPa Calm     58% 0 mm
22:44 8.9 °C 0.3 °C 1018.2 hPa Calm     55% 0 mm
22:49 8.8 °C 0.1 °C 1018.2 hPa Calm     54% 0 mm
22:54 8.8 °C 1 °C 1018.2 hPa Calm     58% 0 mm
22:59 8.9 °C 0.4 °C 1018.2 hPa Calm     55% 0 mm
23:04 9 °C 0.4 °C 1018.2 hPa Calm   6.4 km/h 55% 0 mm
23:09 9.1 °C -0.3 °C 1018.2 hPa Calm   6.4 km/h 52% 0 mm
23:14 9.2 °C -0.4 °C 1018.2 hPa SSW 1.6 km/h 4.8 km/h 51% 0 mm
23:19 9.4 °C 0.1 °C 1018.5 hPa Calm   4.8 km/h 52% 0 mm
23:29 9.5 °C -0.1 °C 1018.5 hPa Calm   1.6 km/h 51% 0 mm
23:34 9.6 °C -0.3 °C 1018.2 hPa Calm   4.8 km/h 50% 0 mm
23:39 9.7 °C -0.6 °C 1018.2 hPa Calm   4.8 km/h 49% 0 mm
23:44 9.7 °C 0.3 °C 1018.5 hPa Calm   4.8 km/h 52% 0 mm
23:49 9.7 °C -0.3 °C 1018.5 hPa Calm   4.8 km/h 50% 0 mm
23:54 9.6 °C 0.4 °C 1018.5 hPa Calm     53% 0 mm
23:59 9.4 °C 0.3 °C 1018.5 hPa Calm     53% 0 mm
Westford Weather
Compliments of Weather Underground

 
 
Current Radar Loop:

Copyright © WestfordWeather.net 2007-2014. All rights reserved.